createdAt,value
2022-10-21T00:41:49.914Z,49.48
2022-10-21T00:47:07.424Z,50.12
2022-10-21T00:52:20.282Z,49.63
2022-10-21T00:57:23.990Z,49.42
2022-10-21T01:02:26.139Z,49.70
2022-10-21T01:07:28.497Z,49.79
2022-10-21T01:12:47.778Z,49.73
2022-10-21T01:18:14.029Z,49.69
2022-10-21T01:23:24.811Z,49.67
2022-10-21T01:29:04.664Z,49.27
2022-10-21T01:34:12.278Z,49.75
2022-10-21T01:39:37.501Z,49.76
2022-10-21T01:44:53.356Z,49.45
2022-10-21T01:50:08.593Z,49.60
2022-10-21T01:55:15.881Z,49.79
2022-10-21T02:00:17.982Z,49.65
2022-10-21T02:05:28.233Z,49.60
2022-10-21T02:10:34.901Z,49.91
2022-10-21T02:15:38.241Z,49.52
2022-10-21T02:20:43.346Z,49.59
2022-10-21T02:25:50.550Z,49.35
2022-10-21T02:31:01.135Z,49.95
2022-10-21T02:36:16.569Z,49.78
2022-10-21T02:41:23.467Z,49.76
2022-10-21T02:46:25.980Z,49.28
2022-10-21T02:51:27.893Z,49.66
2022-10-21T03:01:51.494Z,50.03
2022-10-21T03:06:53.323Z,49.57
2022-10-21T03:11:55.089Z,49.55
2022-10-21T03:16:56.897Z,49.38
2022-10-21T03:21:58.792Z,49.56
2022-10-21T03:27:00.827Z,49.52
2022-10-21T03:32:02.752Z,49.60
2022-10-21T03:37:04.840Z,49.50
2022-10-21T03:42:06.925Z,49.31
2022-10-21T03:47:09.193Z,49.61
2022-10-21T03:52:11.148Z,49.26
2022-10-21T03:57:13.034Z,49.50
2022-10-21T04:02:14.713Z,48.96
2022-10-21T04:07:16.394Z,49.26
2022-10-21T04:12:18.066Z,49.19
2022-10-21T04:17:20.272Z,49.38
2022-10-21T04:22:22.078Z,49.36
2022-10-21T04:27:23.968Z,49.24
2022-10-21T04:32:25.704Z,49.32
2022-10-21T04:37:27.705Z,49.37
2022-10-21T04:42:29.516Z,49.37
2022-10-21T04:47:31.389Z,49.23
2022-10-21T04:52:33.205Z,49.54
2022-10-21T04:57:35.153Z,49.19
2022-10-21T05:02:36.975Z,49.16
2022-10-21T05:07:39.594Z,48.96
2022-10-21T05:12:41.426Z,48.93
2022-10-21T05:17:43.217Z,49.39
2022-10-21T05:22:45.079Z,49.48
2022-10-21T05:27:47.387Z,49.12
2022-10-21T05:32:49.104Z,49.15
2022-10-21T05:37:50.980Z,49.07
2022-10-21T05:42:52.928Z,49.33
2022-10-21T05:47:54.752Z,49.31
2022-10-21T05:52:59.572Z,49.21
2022-10-21T05:58:01.352Z,49.44
2022-10-21T06:03:03.259Z,48.95
2022-10-21T06:08:05.418Z,49.15
2022-10-21T06:13:07.168Z,49.15
2022-10-21T06:18:08.937Z,49.36
2022-10-21T06:23:12.860Z,48.92
2022-10-21T06:28:14.641Z,49.01
2022-10-21T06:33:16.496Z,49.13
2022-10-21T06:38:18.977Z,49.30
2022-10-21T06:48:42.864Z,50.05
2022-10-21T06:53:44.890Z,50.08
2022-10-21T06:58:49.247Z,49.86
2022-10-21T07:03:51.578Z,49.73
2022-10-21T07:08:58.147Z,50.04
2022-10-21T07:14:01.313Z,50.46
2022-10-21T07:19:03.214Z,50.90
2022-10-21T07:24:05.043Z,51.45
2022-10-21T07:29:06.922Z,51.41
2022-10-21T07:34:09.645Z,51.45
2022-10-21T07:39:15.735Z,51.15
2022-10-21T07:44:19.405Z,51.59
2022-10-21T07:49:22.646Z,51.22
2022-10-21T07:54:24.584Z,52.65
2022-10-21T07:59:26.582Z,52.51
2022-10-21T08:04:32.243Z,51.89
2022-10-21T08:09:34.172Z,52.26
2022-10-21T08:14:35.920Z,51.87
2022-10-21T08:19:37.651Z,52.00
2022-10-21T08:24:42.199Z,51.83
2022-10-21T08:29:44.219Z,52.26
2022-10-21T08:34:46.099Z,51.67
2022-10-21T08:39:47.893Z,52.33
2022-10-21T08:45:03.575Z,52.29
2022-10-21T08:50:16.523Z,52.26
2022-10-21T08:55:24.095Z,52.24
2022-10-21T09:00:33.063Z,52.46
2022-10-21T09:05:50.102Z,52.21
2022-10-21T09:11:01.063Z,52.47
2022-10-21T09:16:19.690Z,52.08
2022-10-21T09:21:47.850Z,52.44
2022-10-21T09:26:52.507Z,52.20
2022-10-21T09:32:02.543Z,52.15
2022-10-21T09:37:06.973Z,51.77
2022-10-21T09:42:29.209Z,51.68
2022-10-21T09:47:34.768Z,51.67
2022-10-21T09:52:38.314Z,52.27
2022-10-21T09:58:03.638Z,51.97
2022-10-21T10:03:05.496Z,51.89
2022-10-21T10:08:55.384Z,51.88
2022-10-21T10:13:58.005Z,52.13
2022-10-21T10:19:20.349Z,52.06
2022-10-21T10:24:22.379Z,52.21
2022-10-21T10:29:28.037Z,52.05
2022-10-21T10:34:33.743Z,51.55
2022-10-21T10:39:39.811Z,51.76
2022-10-21T10:44:43.017Z,51.86
2022-10-21T10:49:45.125Z,51.68
2022-10-21T10:54:47.556Z,51.83
2022-10-21T10:59:57.161Z,52.01
2022-10-21T11:05:04.852Z,51.62
2022-10-21T11:10:32.430Z,51.99
2022-10-21T11:15:43.200Z,52.22
2022-10-21T11:20:52.891Z,51.98
2022-10-21T11:26:03.344Z,52.41
2022-10-21T11:31:21.340Z,52.34
2022-10-21T11:36:47.766Z,52.20
2022-10-21T11:41:56.634Z,53.18
2022-10-21T11:47:06.364Z,52.92
2022-10-21T11:52:14.210Z,52.97
2022-10-21T11:57:36.356Z,52.84
2022-10-21T12:02:46.547Z,52.32
2022-10-21T12:08:16.191Z,52.24
2022-10-21T12:13:25.082Z,52.58
2022-10-21T12:18:29.273Z,52.61
2022-10-21T12:23:31.785Z,52.62
2022-10-21T12:28:38.051Z,52.29
2022-10-21T12:33:44.249Z,52.30
2022-10-21T12:38:54.786Z,52.38
2022-10-21T12:44:03.956Z,51.92
2022-10-21T12:49:33.775Z,52.20
2022-10-21T12:55:03.715Z,52.22
2022-10-21T13:05:38.764Z,52.17
2022-10-21T13:10:40.873Z,52.57
2022-10-21T13:15:46.093Z,51.86
2022-10-21T13:20:48.499Z,52.02
2022-10-21T13:26:05.608Z,51.81
2022-10-21T13:31:07.606Z,51.33
2022-10-21T13:36:13.281Z,51.84
2022-10-21T13:41:18.153Z,51.63
2022-10-21T13:46:22.114Z,51.32
2022-10-21T13:51:29.700Z,51.40
2022-10-21T13:56:36.556Z,51.59
2022-10-21T14:01:48.806Z,50.93
2022-10-21T14:06:58.214Z,51.88
2022-10-21T14:12:06.518Z,51.64
2022-10-21T14:17:15.526Z,51.72
2022-10-21T14:22:24.562Z,51.40
2022-10-21T14:27:29.701Z,51.26
2022-10-21T14:32:32.576Z,51.29
2022-10-21T14:37:52.173Z,51.64
2022-10-21T14:42:55.169Z,51.37
2022-10-21T14:48:09.496Z,51.06
2022-10-21T14:53:17.174Z,51.60
2022-10-21T14:58:23.791Z,51.84
2022-10-21T15:03:43.775Z,51.45
2022-10-21T15:09:07.954Z,51.85
2022-10-21T15:14:12.642Z,51.72
2022-10-21T15:19:28.426Z,51.93
2022-10-21T15:24:33.512Z,51.94
2022-10-21T15:29:38.435Z,52.12
2022-10-21T15:34:40.376Z,52.13
2022-10-21T15:39:43.136Z,51.81
2022-10-21T15:44:49.925Z,51.79
2022-10-21T15:49:51.668Z,51.66
2022-10-21T15:54:54.130Z,51.53
2022-10-21T15:59:55.933Z,51.50
2022-10-21T16:04:57.720Z,51.17
2022-10-21T16:09:59.353Z,51.12
2022-10-21T16:15:01.148Z,51.16
2022-10-21T16:20:04.041Z,51.05
2022-10-21T16:25:06.385Z,51.30
2022-10-21T16:30:21.633Z,51.38
2022-10-21T16:35:23.333Z,51.32
2022-10-21T16:40:27.739Z,51.05
2022-10-21T16:45:32.184Z,51.74
2022-10-21T16:50:45.601Z,51.56
2022-10-21T16:55:47.497Z,51.69
2022-10-21T17:00:50.411Z,51.59
2022-10-21T17:05:53.108Z,51.31
2022-10-21T17:10:54.943Z,51.39
2022-10-21T17:15:56.846Z,51.59
2022-10-21T17:20:58.786Z,51.50
2022-10-21T17:26:00.578Z,51.58
2022-10-21T17:31:02.496Z,51.27
2022-10-21T17:36:04.737Z,51.53
2022-10-21T17:41:06.540Z,51.41
2022-10-21T17:46:15.000Z,51.40
2022-10-21T17:51:17.236Z,50.99
2022-10-21T17:56:20.008Z,50.95
2022-10-21T18:01:24.945Z,51.14
2022-10-21T18:06:27.227Z,51.00
2022-10-21T18:11:28.933Z,51.05
2022-10-21T18:16:30.826Z,51.14
2022-10-21T18:21:32.698Z,51.03
2022-10-21T18:26:34.606Z,51.07
2022-10-21T18:31:37.522Z,51.08
2022-10-21T18:36:40.966Z,50.57
2022-10-21T18:41:43.537Z,50.62
2022-10-21T18:46:46.802Z,51.06
2022-10-21T18:51:48.687Z,51.85
2022-10-21T18:56:50.451Z,52.22
2022-10-21T19:01:55.405Z,53.25
2022-10-21T19:06:57.449Z,53.86
2022-10-21T19:12:01.043Z,53.82
2022-10-21T19:17:02.840Z,53.62
2022-10-21T19:22:04.758Z,53.60
2022-10-21T19:27:06.535Z,53.59
2022-10-21T19:32:08.273Z,53.34
2022-10-21T19:37:10.813Z,53.20
2022-10-21T19:42:13.293Z,52.85
2022-10-21T19:47:15.302Z,52.50
2022-10-21T19:52:17.315Z,52.92
2022-10-21T19:57:19.253Z,52.96
2022-10-21T20:02:21.475Z,52.21
2022-10-21T20:07:23.337Z,52.83
2022-10-21T20:12:25.371Z,52.67
2022-10-21T20:17:27.277Z,52.59
2022-10-21T20:22:29.121Z,52.38
2022-10-21T20:27:30.853Z,52.33
2022-10-21T20:32:34.125Z,51.75
2022-10-21T20:37:38.838Z,52.13
2022-10-21T20:42:40.773Z,52.13
2022-10-21T20:47:43.063Z,51.72
2022-10-21T20:52:46.077Z,51.67
2022-10-21T20:57:47.916Z,51.59
2022-10-21T21:02:49.963Z,51.65
2022-10-21T21:07:51.862Z,51.32
2022-10-21T21:12:54.082Z,51.83
2022-10-21T21:17:56.516Z,52.23
2022-10-21T21:22:58.384Z,51.88
2022-10-21T21:28:00.156Z,51.52
2022-10-21T21:33:01.935Z,51.92
2022-10-21T21:38:03.988Z,51.77
2022-10-21T21:43:05.968Z,51.48
2022-10-21T21:48:08.237Z,51.48
2022-10-21T21:53:12.415Z,51.60
2022-10-21T21:58:14.389Z,51.92
2022-10-21T22:03:16.134Z,51.72
2022-10-21T22:08:20.889Z,51.77
2022-10-21T22:13:22.583Z,51.46
2022-10-21T22:18:24.471Z,51.55
2022-10-21T22:23:26.755Z,51.53
2022-10-21T22:28:28.655Z,51.41
2022-10-21T22:33:31.149Z,51.65
2022-10-21T22:38:33.358Z,52.01
2022-10-21T22:43:35.101Z,51.57
2022-10-21T22:48:36.957Z,51.65
2022-10-21T22:53:38.984Z,51.52
2022-10-21T22:58:40.819Z,51.65
2022-10-21T23:03:42.575Z,51.09
2022-10-21T23:08:44.492Z,51.29
2022-10-21T23:13:56.384Z,51.10
2022-10-21T23:19:06.217Z,51.34
2022-10-21T23:24:08.808Z,51.28
2022-10-21T23:29:10.621Z,51.38
2022-10-21T23:34:12.350Z,51.12
2022-10-21T23:39:14.054Z,51.06
2022-10-21T23:44:15.965Z,51.34
2022-10-21T23:49:17.669Z,51.01
2022-10-21T23:54:19.600Z,51.38
2022-10-21T23:59:22.431Z,51.23
